sensor_id;sensor_type;location;lat;lon;timestamp;P1;durP1;ratioP1;P2;durP2;ratioP2
7759;SDS011;3924;48.830;9.262;2024-02-23T00:00:35;0.40;;;0.40;;
7759;SDS011;3924;48.830;9.262;2024-02-23T00:03:02;0.40;;;0.40;;
7759;SDS011;3924;48.830;9.262;2024-02-23T00:05:29;0.30;;;0.30;;
7759;SDS011;3924;48.830;9.262;2024-02-23T00:07:55;0.47;;;0.47;;
7759;SDS011;3924;48.830;9.262;2024-02-23T00:10:22;0.40;;;0.40;;
7759;SDS011;3924;48.830;9.262;2024-02-23T00:12:48;0.40;;;0.40;;
7759;SDS011;3924;48.830;9.262;2024-02-23T00:15:15;0.73;;;0.50;;
7759;SDS011;3924;48.830;9.262;2024-02-23T00:17:42;0.40;;;0.40;;
7759;SDS011;3924;48.830;9.262;2024-02-23T00:20:08;0.70;;;0.50;;
7759;SDS011;3924;48.830;9.262;2024-02-23T00:22:38;1.00;;;0.80;;
7759;SDS011;3924;48.830;9.262;2024-02-23T00:25:05;1.00;;;0.70;;
7759;SDS011;3924;48.830;9.262;2024-02-23T00:27:32;0.50;;;0.50;;
7759;SDS011;3924;48.830;9.262;2024-02-23T00:29:59;0.50;;;0.50;;
7759;SDS011;3924;48.830;9.262;2024-02-23T00:32:26;0.40;;;0.40;;
7759;SDS011;3924;48.830;9.262;2024-02-23T00:34:52;1.43;;;1.00;;
7759;SDS011;3924;48.830;9.262;2024-02-23T00:37:19;0.30;;;0.30;;
7759;SDS011;3924;48.830;9.262;2024-02-23T00:39:45;1.13;;;0.50;;
7759;SDS011;3924;48.830;9.262;2024-02-23T00:42:12;0.63;;;0.63;;
7759;SDS011;3924;48.830;9.262;2024-02-23T00:44:38;1.53;;;0.60;;
7759;SDS011;3924;48.830;9.262;2024-02-23T00:47:05;1.27;;;0.43;;
7759;SDS011;3924;48.830;9.262;2024-02-23T00:49:31;0.67;;;0.67;;
7759;SDS011;3924;48.830;9.262;2024-02-23T00:51:58;0.50;;;0.50;;
7759;SDS011;3924;48.830;9.262;2024-02-23T00:54:24;1.23;;;0.60;;
7759;SDS011;3924;48.830;9.262;2024-02-23T00:56:51;0.90;;;0.57;;
7759;SDS011;3924;48.830;9.262;2024-02-23T00:59:22;0.50;;;0.50;;
7759;SDS011;3924;48.830;9.262;2024-02-23T01:01:49;0.50;;;0.50;;
7759;SDS011;3924;48.830;9.262;2024-02-23T01:04:15;0.40;;;0.40;;
7759;SDS011;3924;48.830;9.262;2024-02-23T01:06:42;3.10;;;0.50;;
7759;SDS011;3924;48.830;9.262;2024-02-23T01:09:08;1.20;;;0.53;;
7759;SDS011;3924;48.830;9.262;2024-02-23T01:11:35;0.50;;;0.50;;
7759;SDS011;3924;48.830;9.262;2024-02-23T01:14:01;0.63;;;0.60;;
7759;SDS011;3924;48.830;9.262;2024-02-23T01:16:28;0.60;;;0.60;;
7759;SDS011;3924;48.830;9.262;2024-02-23T01:18:54;1.00;;;0.50;;
7759;SDS011;3924;48.830;9.262;2024-02-23T01:21:21;0.60;;;0.60;;
7759;SDS011;3924;48.830;9.262;2024-02-23T01:23:47;0.47;;;0.47;;
7759;SDS011;3924;48.830;9.262;2024-02-23T01:26:14;1.60;;;0.60;;
7759;SDS011;3924;48.830;9.262;2024-02-23T01:28:40;0.53;;;0.53;;
7759;SDS011;3924;48.830;9.262;2024-02-23T01:31:11;0.40;;;0.40;;
7759;SDS011;3924;48.830;9.262;2024-02-23T01:33:38;0.50;;;0.50;;
7759;SDS011;3924;48.830;9.262;2024-02-23T01:36:06;0.63;;;0.50;;
7759;SDS011;3924;48.830;9.262;2024-02-23T01:38:33;2.30;;;0.50;;
7759;SDS011;3924;48.830;9.262;2024-02-23T01:41:00;0.70;;;0.60;;
7759;SDS011;3924;48.830;9.262;2024-02-23T01:43:27;0.90;;;0.70;;
7759;SDS011;3924;48.830;9.262;2024-02-23T01:45:54;1.73;;;0.60;;
7759;SDS011;3924;48.830;9.262;2024-02-23T01:48:20;0.50;;;0.50;;
7759;SDS011;3924;48.830;9.262;2024-02-23T01:50:47;0.60;;;0.60;;
7759;SDS011;3924;48.830;9.262;2024-02-23T01:53:14;0.57;;;0.57;;
7759;SDS011;3924;48.830;9.262;2024-02-23T01:55:41;0.47;;;0.47;;
7759;SDS011;3924;48.830;9.262;2024-02-23T01:58:08;0.53;;;0.53;;
7759;SDS011;3924;48.830;9.262;2024-02-23T02:00:35;2.63;;;0.70;;
7759;SDS011;3924;48.830;9.262;2024-02-23T02:03:03;0.50;;;0.50;;
7759;SDS011;3924;48.830;9.262;2024-02-23T02:05:33;0.43;;;0.43;;
7759;SDS011;3924;48.830;9.262;2024-02-23T02:08:02;0.67;;;0.67;;
7759;SDS011;3924;48.830;9.262;2024-02-23T02:10:29;0.83;;;0.80;;
7759;SDS011;3924;48.830;9.262;2024-02-23T02:13:01;1.03;;;0.50;;
7759;SDS011;3924;48.830;9.262;2024-02-23T02:15:28;0.87;;;0.50;;
7759;SDS011;3924;48.830;9.262;2024-02-23T02:17:54;0.57;;;0.50;;
7759;SDS011;3924;48.830;9.262;2024-02-23T02:20:23;0.93;;;0.60;;
7759;SDS011;3924;48.830;9.262;2024-02-23T02:22:51;0.43;;;0.43;;
7759;SDS011;3924;48.830;9.262;2024-02-23T02:25:18;0.53;;;0.50;;
7759;SDS011;3924;48.830;9.262;2024-02-23T02:27:45;0.60;;;0.60;;
7759;SDS011;3924;48.830;9.262;2024-02-23T02:30:12;1.97;;;0.70;;
7759;SDS011;3924;48.830;9.262;2024-02-23T02:32:39;1.73;;;0.60;;
7759;SDS011;3924;48.830;9.262;2024-02-23T02:35:06;0.60;;;0.43;;
7759;SDS011;3924;48.830;9.262;2024-02-23T02:37:33;0.60;;;0.60;;
7759;SDS011;3924;48.830;9.262;2024-02-23T02:39:59;0.53;;;0.50;;
7759;SDS011;3924;48.830;9.262;2024-02-23T02:42:26;0.67;;;0.60;;
7759;SDS011;3924;48.830;9.262;2024-02-23T02:44:54;0.77;;;0.70;;
7759;SDS011;3924;48.830;9.262;2024-02-23T02:47:21;1.07;;;0.90;;
7759;SDS011;3924;48.830;9.262;2024-02-23T02:49:48;1.83;;;0.77;;
7759;SDS011;3924;48.830;9.262;2024-02-23T02:52:15;3.37;;;0.67;;
7759;SDS011;3924;48.830;9.262;2024-02-23T02:54:41;0.77;;;0.50;;
7759;SDS011;3924;48.830;9.262;2024-02-23T02:57:08;0.70;;;0.67;;
7759;SDS011;3924;48.830;9.262;2024-02-23T02:59:34;0.87;;;0.50;;
7759;SDS011;3924;48.830;9.262;2024-02-23T03:02:02;1.83;;;0.70;;
7759;SDS011;3924;48.830;9.262;2024-02-23T03:04:29;0.67;;;0.50;;
7759;SDS011;3924;48.830;9.262;2024-02-23T03:06:55;0.47;;;0.47;;
7759;SDS011;3924;48.830;9.262;2024-02-23T03:09:22;0.50;;;0.50;;
7759;SDS011;3924;48.830;9.262;2024-02-23T03:11:48;1.17;;;0.60;;
7759;SDS011;3924;48.830;9.262;2024-02-23T03:14:15;0.70;;;0.70;;
7759;SDS011;3924;48.830;9.262;2024-02-23T03:16:44;0.37;;;0.37;;
7759;SDS011;3924;48.830;9.262;2024-02-23T03:19:14;1.47;;;0.60;;
7759;SDS011;3924;48.830;9.262;2024-02-23T03:21:41;1.30;;;0.40;;
7759;SDS011;3924;48.830;9.262;2024-02-23T03:24:08;1.57;;;0.67;;
7759;SDS011;3924;48.830;9.262;2024-02-23T03:26:34;2.27;;;0.70;;
7759;SDS011;3924;48.830;9.262;2024-02-23T03:29:01;1.53;;;0.53;;
7759;SDS011;3924;48.830;9.262;2024-02-23T03:31:28;0.93;;;0.50;;
7759;SDS011;3924;48.830;9.262;2024-02-23T03:33:55;0.50;;;0.50;;
7759;SDS011;3924;48.830;9.262;2024-02-23T03:36:21;0.53;;;0.53;;
7759;SDS011;3924;48.830;9.262;2024-02-23T03:38:48;1.10;;;0.60;;
7759;SDS011;3924;48.830;9.262;2024-02-23T03:41:14;0.67;;;0.50;;
7759;SDS011;3924;48.830;9.262;2024-02-23T03:43:41;2.00;;;0.70;;
7759;SDS011;3924;48.830;9.262;2024-02-23T03:46:07;0.53;;;0.50;;
7759;SDS011;3924;48.830;9.262;2024-02-23T03:48:34;4.07;;;0.70;;
7759;SDS011;3924;48.830;9.262;2024-02-23T03:51:00;0.50;;;0.50;;
7759;SDS011;3924;48.830;9.262;2024-02-23T03:53:27;1.17;;;0.50;;
7759;SDS011;3924;48.830;9.262;2024-02-23T03:55:54;1.87;;;0.80;;
7759;SDS011;3924;48.830;9.262;2024-02-23T03:58:20;1.80;;;0.43;;
7759;SDS011;3924;48.830;9.262;2024-02-23T04:00:47;3.30;;;0.67;;
7759;SDS011;3924;48.830;9.262;2024-02-23T04:03:14;1.67;;;0.70;;
7759;SDS011;3924;48.830;9.262;2024-02-23T04:05:41;1.80;;;0.70;;
7759;SDS011;3924;48.830;9.262;2024-02-23T04:08:08;0.50;;;0.50;;
7759;SDS011;3924;48.830;9.262;2024-02-23T04:10:35;0.80;;;0.60;;
7759;SDS011;3924;48.830;9.262;2024-02-23T04:13:01;2.40;;;0.83;;
7759;SDS011;3924;48.830;9.262;2024-02-23T04:15:28;3.23;;;1.00;;
7759;SDS011;3924;48.830;9.262;2024-02-23T04:17:54;0.40;;;0.40;;
7759;SDS011;3924;48.830;9.262;2024-02-23T04:20:21;1.07;;;0.60;;
7759;SDS011;3924;48.830;9.262;2024-02-23T04:22:47;1.30;;;0.63;;
7759;SDS011;3924;48.830;9.262;2024-02-23T04:25:14;0.70;;;0.50;;
7759;SDS011;3924;48.830;9.262;2024-02-23T04:27:40;0.57;;;0.57;;
7759;SDS011;3924;48.830;9.262;2024-02-23T04:30:07;0.77;;;0.60;;
7759;SDS011;3924;48.830;9.262;2024-02-23T04:32:34;1.07;;;0.53;;
7759;SDS011;3924;48.830;9.262;2024-02-23T04:35:01;1.30;;;0.40;;
7759;SDS011;3924;48.830;9.262;2024-02-23T04:37:28;0.70;;;0.57;;
7759;SDS011;3924;48.830;9.262;2024-02-23T04:39:54;0.73;;;0.70;;
7759;SDS011;3924;48.830;9.262;2024-02-23T04:42:21;1.03;;;0.70;;
7759;SDS011;3924;48.830;9.262;2024-02-23T04:44:47;1.57;;;0.80;;
7759;SDS011;3924;48.830;9.262;2024-02-23T04:47:15;2.43;;;1.00;;
7759;SDS011;3924;48.830;9.262;2024-02-23T04:49:42;1.63;;;0.60;;
7759;SDS011;3924;48.830;9.262;2024-02-23T04:52:08;0.93;;;0.60;;
7759;SDS011;3924;48.830;9.262;2024-02-23T04:54:35;3.60;;;0.80;;
7759;SDS011;3924;48.830;9.262;2024-02-23T04:57:01;0.77;;;0.77;;
7759;SDS011;3924;48.830;9.262;2024-02-23T04:59:28;1.60;;;0.70;;
7759;SDS011;3924;48.830;9.262;2024-02-23T05:01:56;2.03;;;0.80;;
7759;SDS011;3924;48.830;9.262;2024-02-23T05:04:22;0.73;;;0.70;;
7759;SDS011;3924;48.830;9.262;2024-02-23T05:06:49;0.70;;;0.70;;
7759;SDS011;3924;48.830;9.262;2024-02-23T05:09:16;0.60;;;0.60;;
7759;SDS011;3924;48.830;9.262;2024-02-23T05:11:42;3.13;;;0.80;;
7759;SDS011;3924;48.830;9.262;2024-02-23T05:14:09;1.07;;;0.80;;
7759;SDS011;3924;48.830;9.262;2024-02-23T05:16:36;2.60;;;0.70;;
7759;SDS011;3924;48.830;9.262;2024-02-23T05:19:03;1.10;;;1.03;;
7759;SDS011;3924;48.830;9.262;2024-02-23T05:21:29;1.23;;;0.80;;
7759;SDS011;3924;48.830;9.262;2024-02-23T05:23:57;0.50;;;0.50;;
7759;SDS011;3924;48.830;9.262;2024-02-23T05:26:23;0.40;;;0.40;;
7759;SDS011;3924;48.830;9.262;2024-02-23T05:28:50;1.23;;;0.70;;
7759;SDS011;3924;48.830;9.262;2024-02-23T05:31:17;1.90;;;0.70;;
7759;SDS011;3924;48.830;9.262;2024-02-23T05:33:43;0.77;;;0.70;;
7759;SDS011;3924;48.830;9.262;2024-02-23T05:36:14;4.60;;;0.77;;
7759;SDS011;3924;48.830;9.262;2024-02-23T05:38:42;2.10;;;0.70;;
7759;SDS011;3924;48.830;9.262;2024-02-23T05:41:12;2.43;;;1.00;;
7759;SDS011;3924;48.830;9.262;2024-02-23T05:43:39;3.13;;;1.00;;
7759;SDS011;3924;48.830;9.262;2024-02-23T05:46:06;1.17;;;0.77;;
7759;SDS011;3924;48.830;9.262;2024-02-23T05:48:32;2.23;;;0.60;;
7759;SDS011;3924;48.830;9.262;2024-02-23T05:50:59;1.97;;;0.80;;
7759;SDS011;3924;48.830;9.262;2024-02-23T05:53:26;0.80;;;0.80;;
7759;SDS011;3924;48.830;9.262;2024-02-23T05:55:52;1.40;;;0.90;;
7759;SDS011;3924;48.830;9.262;2024-02-23T05:58:19;0.77;;;0.77;;
7759;SDS011;3924;48.830;9.262;2024-02-23T06:00:47;0.80;;;0.80;;
7759;SDS011;3924;48.830;9.262;2024-02-23T06:03:13;4.77;;;0.97;;
7759;SDS011;3924;48.830;9.262;2024-02-23T06:05:40;1.27;;;0.80;;
7759;SDS011;3924;48.830;9.262;2024-02-23T06:08:07;2.27;;;0.83;;
7759;SDS011;3924;48.830;9.262;2024-02-23T06:10:33;0.70;;;0.70;;
7759;SDS011;3924;48.830;9.262;2024-02-23T06:13:00;2.33;;;1.00;;
7759;SDS011;3924;48.830;9.262;2024-02-23T06:15:29;0.80;;;0.80;;
7759;SDS011;3924;48.830;9.262;2024-02-23T06:17:56;2.33;;;1.20;;
7759;SDS011;3924;48.830;9.262;2024-02-23T06:20:22;1.10;;;1.00;;
7759;SDS011;3924;48.830;9.262;2024-02-23T06:22:49;0.77;;;0.70;;
7759;SDS011;3924;48.830;9.262;2024-02-23T06:25:16;4.87;;;1.20;;
7759;SDS011;3924;48.830;9.262;2024-02-23T06:27:42;1.90;;;0.90;;
7759;SDS011;3924;48.830;9.262;2024-02-23T06:30:09;2.67;;;0.93;;
7759;SDS011;3924;48.830;9.262;2024-02-23T06:32:37;1.77;;;1.07;;
7759;SDS011;3924;48.830;9.262;2024-02-23T06:35:04;1.47;;;0.93;;
7759;SDS011;3924;48.830;9.262;2024-02-23T06:37:32;1.17;;;1.07;;
7759;SDS011;3924;48.830;9.262;2024-02-23T06:40:00;1.43;;;0.80;;
7759;SDS011;3924;48.830;9.262;2024-02-23T06:42:27;1.77;;;1.10;;
7759;SDS011;3924;48.830;9.262;2024-02-23T06:44:53;0.87;;;0.87;;
7759;SDS011;3924;48.830;9.262;2024-02-23T06:47:20;3.27;;;0.80;;
7759;SDS011;3924;48.830;9.262;2024-02-23T06:49:47;1.80;;;1.43;;
7759;SDS011;3924;48.830;9.262;2024-02-23T06:52:13;1.23;;;0.90;;
7759;SDS011;3924;48.830;9.262;2024-02-23T06:54:40;2.53;;;0.90;;
7759;SDS011;3924;48.830;9.262;2024-02-23T06:57:06;2.10;;;0.87;;
7759;SDS011;3924;48.830;9.262;2024-02-23T06:59:33;0.70;;;0.70;;
7759;SDS011;3924;48.830;9.262;2024-02-23T07:02:00;1.03;;;0.80;;
7759;SDS011;3924;48.830;9.262;2024-02-23T07:04:26;3.50;;;0.90;;
7759;SDS011;3924;48.830;9.262;2024-02-23T07:06:55;2.53;;;0.90;;
7759;SDS011;3924;48.830;9.262;2024-02-23T07:09:21;1.67;;;1.00;;
7759;SDS011;3924;48.830;9.262;2024-02-23T07:11:48;1.20;;;1.10;;
7759;SDS011;3924;48.830;9.262;2024-02-23T07:14:14;1.77;;;1.00;;
7759;SDS011;3924;48.830;9.262;2024-02-23T07:16:43;2.50;;;1.03;;
7759;SDS011;3924;48.830;9.262;2024-02-23T07:19:09;1.23;;;1.10;;
7759;SDS011;3924;48.830;9.262;2024-02-23T07:21:36;0.90;;;0.90;;
7759;SDS011;3924;48.830;9.262;2024-02-23T07:24:06;2.50;;;0.90;;
7759;SDS011;3924;48.830;9.262;2024-02-23T07:26:33;1.87;;;0.80;;
7759;SDS011;3924;48.830;9.262;2024-02-23T07:29:00;1.53;;;1.10;;
7759;SDS011;3924;48.830;9.262;2024-02-23T07:31:26;8.23;;;1.43;;
7759;SDS011;3924;48.830;9.262;2024-02-23T07:33:53;1.67;;;1.40;;
7759;SDS011;3924;48.830;9.262;2024-02-23T07:36:20;3.30;;;1.47;;
7759;SDS011;3924;48.830;9.262;2024-02-23T07:38:47;5.27;;;1.70;;
7759;SDS011;3924;48.830;9.262;2024-02-23T07:41:14;6.10;;;1.97;;
7759;SDS011;3924;48.830;9.262;2024-02-23T07:43:41;2.93;;;1.90;;
7759;SDS011;3924;48.830;9.262;2024-02-23T07:46:08;1.87;;;1.40;;
7759;SDS011;3924;48.830;9.262;2024-02-23T07:48:35;5.00;;;1.10;;
7759;SDS011;3924;48.830;9.262;2024-02-23T07:51:03;1.03;;;1.00;;
7759;SDS011;3924;48.830;9.262;2024-02-23T07:53:30;1.70;;;0.83;;
7759;SDS011;3924;48.830;9.262;2024-02-23T07:55:59;2.00;;;0.90;;
7759;SDS011;3924;48.830;9.262;2024-02-23T07:58:28;0.83;;;0.70;;
7759;SDS011;3924;48.830;9.262;2024-02-23T08:00:54;4.23;;;0.73;;
7759;SDS011;3924;48.830;9.262;2024-02-23T08:03:21;0.70;;;0.70;;
7759;SDS011;3924;48.830;9.262;2024-02-23T08:05:48;1.57;;;0.90;;
7759;SDS011;3924;48.830;9.262;2024-02-23T08:08:14;1.13;;;0.90;;
7759;SDS011;3924;48.830;9.262;2024-02-23T08:10:41;1.50;;;0.80;;
7759;SDS011;3924;48.830;9.262;2024-02-23T08:13:07;1.00;;;0.83;;
7759;SDS011;3924;48.830;9.262;2024-02-23T08:15:36;3.17;;;0.93;;
7759;SDS011;3924;48.830;9.262;2024-02-23T08:18:03;1.93;;;1.03;;
7759;SDS011;3924;48.830;9.262;2024-02-23T08:20:29;0.90;;;0.90;;
7759;SDS011;3924;48.830;9.262;2024-02-23T08:22:56;2.07;;;0.90;;
7759;SDS011;3924;48.830;9.262;2024-02-23T08:25:23;2.20;;;0.90;;
7759;SDS011;3924;48.830;9.262;2024-02-23T08:27:49;1.47;;;0.87;;
7759;SDS011;3924;48.830;9.262;2024-02-23T08:30:16;1.43;;;1.13;;
7759;SDS011;3924;48.830;9.262;2024-02-23T08:32:42;1.37;;;0.90;;
7759;SDS011;3924;48.830;9.262;2024-02-23T08:35:09;0.90;;;0.90;;
7759;SDS011;3924;48.830;9.262;2024-02-23T08:37:36;0.93;;;0.93;;
7759;SDS011;3924;48.830;9.262;2024-02-23T08:40:03;1.17;;;1.07;;
7759;SDS011;3924;48.830;9.262;2024-02-23T08:42:29;1.43;;;1.17;;
7759;SDS011;3924;48.830;9.262;2024-02-23T08:44:56;1.80;;;1.03;;
7759;SDS011;3924;48.830;9.262;2024-02-23T08:47:23;2.17;;;1.00;;
7759;SDS011;3924;48.830;9.262;2024-02-23T08:49:50;1.20;;;1.10;;
7759;SDS011;3924;48.830;9.262;2024-02-23T08:52:17;2.00;;;0.93;;
7759;SDS011;3924;48.830;9.262;2024-02-23T08:54:43;1.80;;;0.90;;
7759;SDS011;3924;48.830;9.262;2024-02-23T08:57:10;0.83;;;0.77;;
7759;SDS011;3924;48.830;9.262;2024-02-23T08:59:36;2.07;;;0.90;;
7759;SDS011;3924;48.830;9.262;2024-02-23T09:02:03;2.27;;;0.70;;
7759;SDS011;3924;48.830;9.262;2024-02-23T09:04:30;0.70;;;0.70;;
7759;SDS011;3924;48.830;9.262;2024-02-23T09:06:56;2.07;;;0.93;;
7759;SDS011;3924;48.830;9.262;2024-02-23T09:09:23;2.10;;;1.08;;
7759;SDS011;3924;48.830;9.262;2024-02-23T09:11:51;2.87;;;1.03;;
7759;SDS011;3924;48.830;9.262;2024-02-23T09:14:18;2.35;;;1.05;;
7759;SDS011;3924;48.830;9.262;2024-02-23T09:16:44;0.93;;;0.90;;
7759;SDS011;3924;48.830;9.262;2024-02-23T09:19:12;4.67;;;0.97;;
7759;SDS011;3924;48.830;9.262;2024-02-23T09:21:39;2.00;;;0.73;;
7759;SDS011;3924;48.830;9.262;2024-02-23T09:24:05;0.73;;;0.73;;
7759;SDS011;3924;48.830;9.262;2024-02-23T09:26:32;2.10;;;1.07;;
7759;SDS011;3924;48.830;9.262;2024-02-23T09:28:58;1.23;;;0.73;;
7759;SDS011;3924;48.830;9.262;2024-02-23T09:31:25;2.23;;;0.93;;
7759;SDS011;3924;48.830;9.262;2024-02-23T09:33:54;1.37;;;1.27;;
7759;SDS011;3924;48.830;9.262;2024-02-23T09:36:21;2.27;;;1.10;;
7759;SDS011;3924;48.830;9.262;2024-02-23T09:38:47;5.63;;;1.10;;
7759;SDS011;3924;48.830;9.262;2024-02-23T09:41:19;4.03;;;0.90;;
7759;SDS011;3924;48.830;9.262;2024-02-23T09:43:47;3.10;;;0.80;;
7759;SDS011;3924;48.830;9.262;2024-02-23T09:46:18;1.93;;;0.90;;
7759;SDS011;3924;48.830;9.262;2024-02-23T09:48:45;1.10;;;0.70;;
7759;SDS011;3924;48.830;9.262;2024-02-23T09:51:12;1.20;;;0.93;;
7759;SDS011;3924;48.830;9.262;2024-02-23T09:53:41;2.93;;;0.80;;
7759;SDS011;3924;48.830;9.262;2024-02-23T09:56:08;3.13;;;0.90;;
7759;SDS011;3924;48.830;9.262;2024-02-23T09:58:36;1.73;;;1.00;;
7759;SDS011;3924;48.830;9.262;2024-02-23T10:01:03;3.50;;;1.00;;
7759;SDS011;3924;48.830;9.262;2024-02-23T10:03:30;0.97;;;0.90;;
7759;SDS011;3924;48.830;9.262;2024-02-23T10:05:57;2.23;;;0.80;;
7759;SDS011;3924;48.830;9.262;2024-02-23T10:08:24;1.53;;;1.00;;
7759;SDS011;3924;48.830;9.262;2024-02-23T10:10:50;2.60;;;1.07;;
7759;SDS011;3924;48.830;9.262;2024-02-23T10:13:18;3.57;;;0.70;;
7759;SDS011;3924;48.830;9.262;2024-02-23T10:15:47;1.30;;;0.80;;
7759;SDS011;3924;48.830;9.262;2024-02-23T10:18:33;3.20;;;0.90;;
7759;SDS011;3924;48.830;9.262;2024-02-23T10:21:00;4.17;;;1.00;;
7759;SDS011;3924;48.830;9.262;2024-02-23T10:23:27;1.73;;;0.80;;
7759;SDS011;3924;48.830;9.262;2024-02-23T10:25:55;2.33;;;0.90;;
7759;SDS011;3924;48.830;9.262;2024-02-23T10:28:21;1.23;;;1.10;;
7759;SDS011;3924;48.830;9.262;2024-02-23T10:30:48;4.33;;;1.00;;
7759;SDS011;3924;48.830;9.262;2024-02-23T10:33:15;3.70;;;1.20;;
7759;SDS011;3924;48.830;9.262;2024-02-23T10:35:45;1.70;;;0.80;;
7759;SDS011;3924;48.830;9.262;2024-02-23T10:38:13;1.20;;;0.87;;
7759;SDS011;3924;48.830;9.262;2024-02-23T10:40:44;2.27;;;1.13;;
7759;SDS011;3924;48.830;9.262;2024-02-23T10:43:16;1.60;;;0.87;;
7759;SDS011;3924;48.830;9.262;2024-02-23T10:45:46;2.23;;;0.90;;
7759;SDS011;3924;48.830;9.262;2024-02-23T10:48:13;2.70;;;1.10;;
7759;SDS011;3924;48.830;9.262;2024-02-23T10:50:41;3.37;;;0.90;;
7759;SDS011;3924;48.830;9.262;2024-02-23T10:53:10;3.50;;;0.80;;
7759;SDS011;3924;48.830;9.262;2024-02-23T10:55:37;1.07;;;0.70;;
7759;SDS011;3924;48.830;9.262;2024-02-23T10:58:06;0.97;;;0.70;;
7759;SDS011;3924;48.830;9.262;2024-02-23T11:00:37;6.97;;;0.90;;
7759;SDS011;3924;48.830;9.262;2024-02-23T11:03:04;4.00;;;0.90;;
7759;SDS011;3924;48.830;9.262;2024-02-23T11:05:33;3.90;;;1.23;;
7759;SDS011;3924;48.830;9.262;2024-02-23T11:08:00;4.03;;;1.20;;
7759;SDS011;3924;48.830;9.262;2024-02-23T11:10:26;2.43;;;0.97;;
7759;SDS011;3924;48.830;9.262;2024-02-23T11:12:58;1.90;;;0.90;;
7759;SDS011;3924;48.830;9.262;2024-02-23T11:15:28;5.40;;;1.10;;
7759;SDS011;3924;48.830;9.262;2024-02-23T11:17:56;1.50;;;0.87;;
7759;SDS011;3924;48.830;9.262;2024-02-23T11:20:23;6.20;;;1.07;;
7759;SDS011;3924;48.830;9.262;2024-02-23T11:22:56;2.17;;;1.10;;
7759;SDS011;3924;48.830;9.262;2024-02-23T11:25:26;1.70;;;0.90;;
7759;SDS011;3924;48.830;9.262;2024-02-23T11:27:53;1.60;;;1.00;;
7759;SDS011;3924;48.830;9.262;2024-02-23T11:30:19;1.13;;;0.90;;
7759;SDS011;3924;48.830;9.262;2024-02-23T11:32:46;6.13;;;1.73;;
7759;SDS011;3924;48.830;9.262;2024-02-23T11:35:15;0.83;;;0.83;;
7759;SDS011;3924;48.830;9.262;2024-02-23T11:37:48;4.17;;;2.10;;
7759;SDS011;3924;48.830;9.262;2024-02-23T11:40:25;1.43;;;0.80;;
7759;SDS011;3924;48.830;9.262;2024-02-23T11:42:52;1.40;;;0.70;;
7759;SDS011;3924;48.830;9.262;2024-02-23T11:45:20;4.57;;;1.03;;
7759;SDS011;3924;48.830;9.262;2024-02-23T11:47:47;2.43;;;0.87;;
7759;SDS011;3924;48.830;9.262;2024-02-23T11:50:31;6.00;;;1.00;;
7759;SDS011;3924;48.830;9.262;2024-02-23T11:52:57;4.13;;;1.23;;
7759;SDS011;3924;48.830;9.262;2024-02-23T11:55:24;4.27;;;1.10;;
7759;SDS011;3924;48.830;9.262;2024-02-23T11:57:52;2.57;;;1.10;;
7759;SDS011;3924;48.830;9.262;2024-02-23T12:00:31;1.50;;;1.03;;
7759;SDS011;3924;48.830;9.262;2024-02-23T12:02:57;2.20;;;0.90;;
7759;SDS011;3924;48.830;9.262;2024-02-23T12:05:24;3.83;;;1.20;;
7759;SDS011;3924;48.830;9.262;2024-02-23T12:07:50;2.17;;;1.00;;
7759;SDS011;3924;48.830;9.262;2024-02-23T12:10:17;5.10;;;0.90;;
7759;SDS011;3924;48.830;9.262;2024-02-23T12:12:44;4.23;;;0.80;;
7759;SDS011;3924;48.830;9.262;2024-02-23T12:15:11;5.97;;;0.90;;
7759;SDS011;3924;48.830;9.262;2024-02-23T12:17:37;1.63;;;1.00;;
7759;SDS011;3924;48.830;9.262;2024-02-23T12:20:13;2.27;;;1.00;;
7759;SDS011;3924;48.830;9.262;2024-02-23T12:22:42;4.70;;;1.30;;
7759;SDS011;3924;48.830;9.262;2024-02-23T12:25:09;2.10;;;1.10;;
7759;SDS011;3924;48.830;9.262;2024-02-23T12:27:39;8.33;;;1.17;;
7759;SDS011;3924;48.830;9.262;2024-02-23T12:30:05;1.67;;;0.93;;
7759;SDS011;3924;48.830;9.262;2024-02-23T12:32:32;3.37;;;0.90;;
7759;SDS011;3924;48.830;9.262;2024-02-23T12:34:59;1.53;;;1.00;;
7759;SDS011;3924;48.830;9.262;2024-02-23T12:37:25;2.87;;;0.90;;
7759;SDS011;3924;48.830;9.262;2024-02-23T12:39:52;0.80;;;0.80;;
7759;SDS011;3924;48.830;9.262;2024-02-23T12:42:18;7.37;;;1.20;;
7759;SDS011;3924;48.830;9.262;2024-02-23T12:44:45;2.70;;;1.20;;
7759;SDS011;3924;48.830;9.262;2024-02-23T12:47:13;3.60;;;1.00;;
7759;SDS011;3924;48.830;9.262;2024-02-23T12:49:40;3.73;;;1.10;;
7759;SDS011;3924;48.830;9.262;2024-02-23T12:52:11;2.10;;;1.00;;
7759;SDS011;3924;48.830;9.262;2024-02-23T12:54:38;3.53;;;1.10;;
7759;SDS011;3924;48.830;9.262;2024-02-23T12:57:05;1.07;;;0.70;;
7759;SDS011;3924;48.830;9.262;2024-02-23T12:59:31;1.50;;;1.00;;
7759;SDS011;3924;48.830;9.262;2024-02-23T13:01:57;3.13;;;1.00;;
7759;SDS011;3924;48.830;9.262;2024-02-23T13:04:24;1.90;;;0.83;;
7759;SDS011;3924;48.830;9.262;2024-02-23T13:06:51;2.90;;;1.10;;
7759;SDS011;3924;48.830;9.262;2024-02-23T13:09:17;1.10;;;1.03;;
7759;SDS011;3924;48.830;9.262;2024-02-23T13:11:44;2.83;;;0.80;;
7759;SDS011;3924;48.830;9.262;2024-02-23T13:14:12;2.78;;;1.23;;
7759;SDS011;3924;48.830;9.262;2024-02-23T13:16:38;3.90;;;1.13;;
7759;SDS011;3924;48.830;9.262;2024-02-23T13:19:05;3.40;;;1.17;;
7759;SDS011;3924;48.830;9.262;2024-02-23T13:21:31;1.33;;;0.90;;
7759;SDS011;3924;48.830;9.262;2024-02-23T13:23:59;4.00;;;1.83;;
7759;SDS011;3924;48.830;9.262;2024-02-23T13:26:26;4.43;;;1.10;;
7759;SDS011;3924;48.830;9.262;2024-02-23T13:28:52;4.43;;;1.10;;
7759;SDS011;3924;48.830;9.262;2024-02-23T13:31:19;1.63;;;0.93;;
7759;SDS011;3924;48.830;9.262;2024-02-23T13:33:46;1.50;;;0.90;;
7759;SDS011;3924;48.830;9.262;2024-02-23T13:36:13;3.63;;;1.53;;
7759;SDS011;3924;48.830;9.262;2024-02-23T13:38:40;2.80;;;0.90;;
7759;SDS011;3924;48.830;9.262;2024-02-23T13:41:08;1.80;;;1.23;;
7759;SDS011;3924;48.830;9.262;2024-02-23T13:43:34;2.70;;;1.13;;
7759;SDS011;3924;48.830;9.262;2024-02-23T13:46:01;7.50;;;1.60;;
7759;SDS011;3924;48.830;9.262;2024-02-23T13:48:30;4.87;;;1.17;;
7759;SDS011;3924;48.830;9.262;2024-02-23T13:50:57;3.67;;;0.93;;
7759;SDS011;3924;48.830;9.262;2024-02-23T13:53:24;3.30;;;1.13;;
7759;SDS011;3924;48.830;9.262;2024-02-23T13:55:50;4.33;;;0.90;;
7759;SDS011;3924;48.830;9.262;2024-02-23T13:58:17;4.10;;;0.97;;
7759;SDS011;3924;48.830;9.262;2024-02-23T14:00:45;2.47;;;1.33;;
7759;SDS011;3924;48.830;9.262;2024-02-23T14:03:15;6.50;;;1.10;;
7759;SDS011;3924;48.830;9.262;2024-02-23T14:05:48;1.37;;;0.97;;
7759;SDS011;3924;48.830;9.262;2024-02-23T14:08:14;2.10;;;1.10;;
7759;SDS011;3924;48.830;9.262;2024-02-23T14:10:41;2.42;;;1.30;;
7759;SDS011;3924;48.830;9.262;2024-02-23T14:13:09;3.93;;;0.90;;
7759;SDS011;3924;48.830;9.262;2024-02-23T14:15:36;3.67;;;0.97;;
7759;SDS011;3924;48.830;9.262;2024-02-23T14:18:03;3.17;;;1.27;;
7759;SDS011;3924;48.830;9.262;2024-02-23T14:20:29;4.53;;;1.13;;
7759;SDS011;3924;48.830;9.262;2024-02-23T14:22:56;5.17;;;1.47;;
7759;SDS011;3924;48.830;9.262;2024-02-23T14:25:22;4.40;;;1.40;;
7759;SDS011;3924;48.830;9.262;2024-02-23T14:27:49;0.77;;;0.77;;
7759;SDS011;3924;48.830;9.262;2024-02-23T14:30:15;3.93;;;1.10;;
7759;SDS011;3924;48.830;9.262;2024-02-23T14:32:42;3.65;;;1.30;;
7759;SDS011;3924;48.830;9.262;2024-02-23T14:35:09;3.53;;;1.40;;
7759;SDS011;3924;48.830;9.262;2024-02-23T14:37:36;5.63;;;1.57;;
7759;SDS011;3924;48.830;9.262;2024-02-23T14:40:02;4.80;;;1.07;;
7759;SDS011;3924;48.830;9.262;2024-02-23T14:42:29;2.87;;;1.30;;
7759;SDS011;3924;48.830;9.262;2024-02-23T14:44:55;3.10;;;0.97;;
7759;SDS011;3924;48.830;9.262;2024-02-23T14:47:22;4.70;;;1.37;;
7759;SDS011;3924;48.830;9.262;2024-02-23T14:50:00;3.20;;;1.00;;
7759;SDS011;3924;48.830;9.262;2024-02-23T14:52:27;5.23;;;1.23;;
7759;SDS011;3924;48.830;9.262;2024-02-23T14:54:54;3.43;;;1.20;;
7759;SDS011;3924;48.830;9.262;2024-02-23T14:57:20;3.07;;;1.10;;
7759;SDS011;3924;48.830;9.262;2024-02-23T14:59:48;2.30;;;1.27;;
7759;SDS011;3924;48.830;9.262;2024-02-23T15:02:19;4.80;;;1.10;;
7759;SDS011;3924;48.830;9.262;2024-02-23T15:04:48;4.23;;;1.03;;
7759;SDS011;3924;48.830;9.262;2024-02-23T15:07:15;5.47;;;1.27;;
7759;SDS011;3924;48.830;9.262;2024-02-23T15:09:42;0.93;;;0.93;;
7759;SDS011;3924;48.830;9.262;2024-02-23T15:12:08;2.17;;;1.10;;
7759;SDS011;3924;48.830;9.262;2024-02-23T15:14:35;1.33;;;1.17;;